Time;durP1;ratioP1;P1;durP2;ratioP2;P2;SDS_P1;SDS_P2;PMS_P1;PMS_P2;Temp;Humidity;BMP_temperature;BMP_pressure;BME280_temperature;BME280_humidity;BME280_pressure;Samples;Min_cycle;Max_cycle;Signal;HPM_P1;HPM_P2
2023/07/31 00:00:34;;;;;;;6.63;1.60;;;15.90;99.90;;;;;;5029664;28;20796;-65
2023/07/31 00:03:00;;;;;;;4.30;1.90;;;15.90;99.90;;;;;;5029657;28;20185;-65
2023/07/31 00:05:26;;;;;;;7.20;1.27;;;15.70;99.90;;;;;;5029518;28;20205;-64
2023/07/31 00:07:51;;;;;;;4.97;1.50;;;15.60;99.90;;;;;;5029623;28;20186;-64
2023/07/31 00:10:17;;;;;;;3.37;1.77;;;15.40;99.90;;;;;;5029475;28;20209;-64
2023/07/31 00:12:45;;;;;;;5.73;1.60;;;15.40;99.90;;;;;;5029437;28;20183;-65
2023/07/31 00:15:10;;;;;;;3.17;1.13;;;15.30;99.90;;;;;;5028697;28;20358;-64
2023/07/31 00:17:37;;;;;;;2.20;1.30;;;15.40;99.90;;;;;;5029251;28;20578;-64
2023/07/31 00:20:02;;;;;;;3.47;1.13;;;15.60;99.90;;;;;;5029242;28;20609;-64
2023/07/31 00:22:28;;;;;;;5.03;1.53;;;15.50;99.90;;;;;;5029263;28;20424;-64
2023/07/31 00:24:54;;;;;;;4.93;1.73;;;15.50;99.90;;;;;;5027783;28;20427;-64
2023/07/31 00:27:19;;;;;;;5.13;1.63;;;15.50;99.90;;;;;;5029541;28;20203;-64
2023/07/31 00:29:45;;;;;;;3.97;1.30;;;15.50;99.90;;;;;;5028971;28;20265;-64
2023/07/31 00:32:10;;;;;;;2.80;1.37;;;15.60;99.90;;;;;;5029219;28;20189;-64
2023/07/31 00:34:36;;;;;;;4.57;1.53;;;15.70;99.90;;;;;;5029060;28;20191;-64
2023/07/31 00:37:02;;;;;;;2.20;1.10;;;15.70;99.90;;;;;;5029079;28;20788;-64
2023/07/31 00:39:29;;;;;;;6.70;1.50;;;15.70;99.90;;;;;;5028977;28;20416;-64
2023/07/31 00:41:55;;;;;;;3.47;1.43;;;15.80;99.90;;;;;;5028864;28;21004;-64
2023/07/31 00:44:20;;;;;;;4.47;1.77;;;15.70;99.90;;;;;;5028887;28;20422;-64
2023/07/31 00:46:46;;;;;;;3.33;1.37;;;15.70;99.90;;;;;;5028689;28;20534;-64
2023/07/31 00:49:12;;;;;;;2.80;1.57;;;15.70;99.90;;;;;;5028640;28;20227;-64
2023/07/31 00:51:38;;;;;;;2.60;1.70;;;15.70;99.90;;;;;;5028805;28;20205;-64
2023/07/31 00:54:04;;;;;;;3.90;1.77;;;15.60;99.90;;;;;;5028572;28;20436;-64
2023/07/31 00:56:30;;;;;;;4.70;1.90;;;15.70;99.90;;;;;;5028551;28;20712;-64
2023/07/31 00:58:56;;;;;;;5.70;1.80;;;15.70;99.90;;;;;;5028653;28;20409;-64
2023/07/31 01:01:22;;;;;;;2.93;1.20;;;15.70;99.90;;;;;;5028966;28;20448;-64
2023/07/31 01:03:51;;;;;;;3.50;1.43;;;15.60;99.90;;;;;;5028560;28;20208;-64
2023/07/31 01:06:40;;;;;;;4.20;1.43;;;15.60;99.90;;;;;;5028680;28;20609;-64
2023/07/31 01:09:22;;;;;;;5.97;1.90;;;15.50;99.90;;;;;;5028483;28;20417;-64
2023/07/31 01:11:54;;;;;;;6.77;1.80;;;15.50;99.90;;;;;;5028399;28;20549;-64
2023/07/31 01:14:20;;;;;;;3.63;1.33;;;15.50;99.90;;;;;;5028411;28;20522;-64
2023/07/31 01:16:45;;;;;;;4.90;1.43;;;15.40;99.90;;;;;;5028314;28;20563;-64
2023/07/31 01:19:14;;;;;;;4.47;1.60;;;15.50;99.90;;;;;;5028379;28;20583;-64
2023/07/31 01:22:01;;;;;;;3.47;1.53;;;15.40;99.90;;;;;;5028473;28;20236;-64
2023/07/31 01:24:41;;;;;;;8.40;1.43;;;15.60;99.90;;;;;;5028338;28;20412;-64
2023/07/31 01:27:12;;;;;;;11.03;3.33;;;15.70;99.90;;;;;;5028396;28;20536;-64
2023/07/31 01:29:44;;;;;;;5.17;1.97;;;15.70;99.90;;;;;;5028376;28;20413;-64
2023/07/31 01:32:11;;;;;;;2.20;1.40;;;15.80;99.90;;;;;;5028157;28;20424;-64
2023/07/31 01:34:37;;;;;;;5.40;1.47;;;15.80;99.90;;;;;;5028215;28;20419;-64
2023/07/31 01:37:03;;;;;;;4.50;1.70;;;15.70;99.90;;;;;;5028186;28;21093;-64
2023/07/31 01:39:28;;;;;;;7.33;2.27;;;15.80;99.90;;;;;;5028419;28;20408;-65
2023/07/31 01:41:54;;;;;;;2.37;1.50;;;15.70;99.90;;;;;;5028696;28;21031;-64
2023/07/31 01:44:20;;;;;;;3.63;1.63;;;15.70;99.90;;;;;;5028252;28;20170;-64
2023/07/31 01:46:45;;;;;;;4.93;2.17;;;15.60;99.90;;;;;;5028234;28;20180;-64
2023/07/31 01:49:11;;;;;;;3.70;2.17;;;15.60;99.90;;;;;;5028202;28;20674;-64
2023/07/31 01:51:36;;;;;;;4.30;1.60;;;15.50;99.90;;;;;;5028156;28;20210;-64
2023/07/31 01:54:02;;;;;;;2.70;1.30;;;15.50;99.90;;;;;;5028484;28;20187;-64
2023/07/31 01:56:28;;;;;;;5.27;1.40;;;15.40;99.90;;;;;;5028272;28;20671;-64
2023/07/31 01:58:54;;;;;;;4.93;1.80;;;15.40;99.90;;;;;;5028294;28;20422;-64
2023/07/31 02:01:20;;;;;;;3.33;1.33;;;15.40;99.90;;;;;;5028231;28;20518;-64
2023/07/31 02:03:45;;;;;;;3.77;1.70;;;15.60;99.90;;;;;;5028416;28;20200;-63
2023/07/31 02:06:11;;;;;;;4.13;1.50;;;15.50;99.90;;;;;;5028476;28;20596;-64
2023/07/31 02:08:37;;;;;;;4.30;1.50;;;15.50;99.90;;;;;;5028743;28;20187;-64
2023/07/31 02:11:03;;;;;;;2.77;1.57;;;15.40;99.90;;;;;;5028799;28;20204;-64
2023/07/31 02:13:28;;;;;;;4.10;1.40;;;15.30;99.90;;;;;;5028976;28;20561;-64
2023/07/31 02:15:54;;;;;;;2.20;1.20;;;15.40;99.90;;;;;;5028648;28;20521;-64
2023/07/31 02:18:19;;;;;;;5.07;1.63;;;15.40;99.90;;;;;;5028964;28;20191;-64
2023/07/31 02:20:54;;;;;;;2.33;1.70;;;15.40;99.90;;;;;;5028829;28;20643;-64
2023/07/31 02:23:20;;;;;;;3.57;1.77;;;15.50;99.90;;;;;;5028931;28;20241;-65
2023/07/31 02:25:46;;;;;;;2.83;1.10;;;15.70;99.90;;;;;;5028850;28;20795;-65
2023/07/31 02:28:11;;;;;;;4.70;1.70;;;15.90;99.90;;;;;;5028758;28;20591;-64
2023/07/31 02:30:37;;;;;;;3.53;1.40;;;16.00;99.90;;;;;;5028668;28;20493;-65
2023/07/31 02:33:03;;;;;;;5.07;1.73;;;16.00;99.90;;;;;;5028697;28;20185;-64
2023/07/31 02:35:29;;;;;;;8.23;2.80;;;15.80;99.90;;;;;;5028244;28;20685;-64
2023/07/31 02:37:55;;;;;;;3.80;1.57;;;15.70;99.90;;;;;;5029283;28;20511;-64
2023/07/31 02:40:20;;;;;;;3.53;1.70;;;15.50;99.90;;;;;;5031592;28;20208;-64
2023/07/31 02:42:46;;;;;;;2.40;1.57;;;15.40;99.90;;;;;;5031663;28;20197;-64
2023/07/31 02:45:11;;;;;;;4.33;1.40;;;15.40;99.90;;;;;;5031856;28;20193;-64
2023/07/31 02:47:37;;;;;;;2.77;1.13;;;15.30;99.90;;;;;;5031837;28;20189;-64
2023/07/31 02:50:03;;;;;;;5.33;1.67;;;15.20;99.90;;;;;;5031649;28;20642;-64
2023/07/31 02:52:29;;;;;;;2.40;1.60;;;15.30;99.90;;;;;;5031732;28;20204;-64
2023/07/31 02:54:55;;;;;;;3.57;1.90;;;15.30;99.90;;;;;;5031821;28;20428;-64
2023/07/31 02:57:20;;;;;;;9.53;1.67;;;15.40;99.90;;;;;;5031729;28;20574;-63
2023/07/31 02:59:46;;;;;;;3.60;1.23;;;15.50;99.90;;;;;;5031584;28;20187;-64
2023/07/31 03:02:12;;;;;;;3.73;1.63;;;15.60;99.90;;;;;;5031356;28;20189;-64
2023/07/31 03:04:38;;;;;;;10.60;1.83;;;15.60;99.90;;;;;;5031071;28;20190;-64
2023/07/31 03:07:04;;;;;;;6.33;1.67;;;15.60;99.90;;;;;;5031045;28;20436;-64
2023/07/31 03:09:30;;;;;;;4.20;1.57;;;15.70;99.90;;;;;;5031079;28;20180;-64
2023/07/31 03:11:55;;;;;;;3.30;1.20;;;15.60;99.90;;;;;;5031094;28;20448;-64
2023/07/31 03:14:21;;;;;;;3.33;1.80;;;15.60;99.90;;;;;;5031140;28;20688;-64
2023/07/31 03:16:46;;;;;;;6.30;1.73;;;15.50;99.90;;;;;;5031427;28;20212;-64
2023/07/31 03:19:12;;;;;;;6.17;1.87;;;15.50;99.90;;;;;;5031387;28;20224;-64
2023/07/31 03:21:37;;;;;;;5.23;2.73;;;15.40;99.90;;;;;;5031374;28;20213;-64
2023/07/31 03:24:03;;;;;;;6.27;2.10;;;15.30;99.90;;;;;;5031361;28;20192;-64
2023/07/31 03:26:31;;;;;;;4.10;1.63;;;15.30;99.90;;;;;;5031264;28;20192;-64
2023/07/31 03:28:57;;;;;;;3.87;2.23;;;15.30;99.90;;;;;;5030936;28;20427;-64
2023/07/31 03:31:22;;;;;;;4.23;1.80;;;15.40;99.90;;;;;;5030793;28;20452;-64
2023/07/31 03:33:48;;;;;;;10.30;1.70;;;15.30;99.90;;;;;;5030658;28;20297;-64
2023/07/31 03:36:13;;;;;;;6.20;1.90;;;15.20;99.90;;;;;;5030342;28;20350;-64
2023/07/31 03:38:39;;;;;;;3.03;1.60;;;15.30;99.90;;;;;;5030324;28;20193;-64
2023/07/31 03:41:06;;;;;;;5.13;1.70;;;15.40;99.90;;;;;;5030114;28;20221;-64
2023/07/31 03:43:33;;;;;;;3.33;1.57;;;15.40;99.90;;;;;;5030096;28;20197;-64
2023/07/31 03:45:59;;;;;;;8.60;2.20;;;15.30;99.90;;;;;;5030021;28;20517;-64
2023/07/31 03:48:25;;;;;;;4.40;1.50;;;15.20;99.90;;;;;;5029739;28;20942;-64
2023/07/31 03:50:51;;;;;;;4.80;1.70;;;15.30;99.90;;;;;;5029004;28;20477;-64
2023/07/31 03:53:16;;;;;;;5.10;1.60;;;15.40;99.90;;;;;;5030092;28;20569;-64
2023/07/31 03:55:42;;;;;;;2.63;1.67;;;15.30;99.90;;;;;;5029891;28;20320;-64
2023/07/31 03:58:08;;;;;;;4.93;1.60;;;15.30;99.90;;;;;;5029956;28;20195;-64
2023/07/31 04:00:33;;;;;;;8.37;1.63;;;15.30;99.90;;;;;;5029905;28;20341;-64
2023/07/31 04:02:59;;;;;;;4.10;2.10;;;15.20;99.90;;;;;;5029797;28;20529;-64
2023/07/31 04:05:25;;;;;;;4.30;2.50;;;15.20;99.90;;;;;;5029747;28;20189;-64
2023/07/31 04:07:50;;;;;;;5.30;2.27;;;15.10;99.90;;;;;;5029951;28;20692;-64
2023/07/31 04:10:16;;;;;;;5.53;1.87;;;15.10;99.90;;;;;;5029430;28;20204;-64
2023/07/31 04:12:41;;;;;;;7.13;2.10;;;15.00;99.90;;;;;;5029490;28;20359;-64
2023/07/31 04:15:07;;;;;;;4.13;1.63;;;14.90;99.90;;;;;;5029341;28;20238;-64
2023/07/31 04:17:33;;;;;;;4.90;1.77;;;15.00;99.90;;;;;;5029235;28;20379;-64
2023/07/31 04:19:58;;;;;;;7.33;2.33;;;14.90;99.90;;;;;;5029100;28;20600;-64
2023/07/31 04:22:24;;;;;;;5.23;2.20;;;14.90;99.90;;;;;;5029610;28;20613;-64
2023/07/31 04:24:50;;;;;;;5.40;1.80;;;14.90;99.90;;;;;;5029488;28;20189;-64
2023/07/31 04:27:15;;;;;;;3.23;1.50;;;14.90;99.90;;;;;;5028806;28;20652;-64
2023/07/31 04:29:42;;;;;;;3.07;1.60;;;14.90;99.90;;;;;;5028112;28;20201;-64
2023/07/31 04:32:08;;;;;;;5.27;2.00;;;14.90;99.90;;;;;;5027947;28;20220;-64
2023/07/31 04:34:33;;;;;;;4.47;1.33;;;15.00;99.90;;;;;;5027589;28;20434;-64
2023/07/31 04:36:59;;;;;;;2.00;1.33;;;15.20;99.90;;;;;;5027133;28;21002;-64
2023/07/31 04:39:24;;;;;;;3.73;2.17;;;15.30;99.90;;;;;;5027466;28;20204;-64
2023/07/31 04:41:50;;;;;;;4.77;1.80;;;15.30;99.90;;;;;;5027191;28;20262;-64
2023/07/31 04:44:15;;;;;;;3.47;1.70;;;15.10;99.90;;;;;;5027738;28;20285;-64
2023/07/31 04:46:41;;;;;;;5.63;1.90;;;15.10;99.90;;;;;;5027363;28;20675;-64
2023/07/31 04:49:07;;;;;;;6.20;1.90;;;15.20;99.90;;;;;;5027430;28;20250;-64
2023/07/31 04:51:32;;;;;;;3.83;1.40;;;15.30;99.90;;;;;;5027293;28;20216;-64
2023/07/31 04:53:58;;;;;;;2.80;1.70;;;15.40;99.90;;;;;;5027309;28;20276;-64
2023/07/31 04:56:23;;;;;;;10.33;2.00;;;15.50;99.90;;;;;;5027127;28;20214;-65
2023/07/31 04:58:49;;;;;;;9.43;1.70;;;15.60;99.90;;;;;;5027480;28;20181;-64
2023/07/31 05:01:15;;;;;;;4.73;1.60;;;15.60;99.90;;;;;;5026763;28;20216;-63
2023/07/31 05:03:40;;;;;;;3.17;1.57;;;15.80;99.90;;;;;;5027215;28;20189;-64
2023/07/31 05:06:06;;;;;;;4.07;1.20;;;15.90;99.90;;;;;;5027082;28;20301;-64
2023/07/31 05:08:31;;;;;;;4.87;1.60;;;16.10;99.90;;;;;;5027174;28;20193;-64
2023/07/31 05:10:57;;;;;;;3.87;1.60;;;16.10;99.90;;;;;;5027059;28;20209;-64
2023/07/31 05:13:22;;;;;;;6.70;2.10;;;16.20;99.90;;;;;;5027018;28;20223;-64
2023/07/31 05:15:49;;;;;;;2.43;1.50;;;16.30;99.90;;;;;;5026937;28;20230;-64
2023/07/31 05:18:15;;;;;;;2.40;1.47;;;16.30;99.90;;;;;;5026909;28;20201;-64
2023/07/31 05:20:40;;;;;;;3.60;1.40;;;16.30;99.90;;;;;;5026846;28;20936;-65
2023/07/31 05:23:06;;;;;;;2.33;1.50;;;16.50;99.90;;;;;;5027039;28;20196;-64
2023/07/31 05:25:32;;;;;;;2.33;1.70;;;16.60;99.90;;;;;;5027107;28;20692;-64
2023/07/31 05:27:58;;;;;;;2.80;1.43;;;16.60;99.90;;;;;;5026933;28;20910;-64
2023/07/31 05:30:23;;;;;;;5.37;1.20;;;16.70;99.90;;;;;;5027003;28;20663;-64
2023/07/31 05:32:49;;;;;;;7.40;1.67;;;16.70;99.90;;;;;;5026718;28;20288;-64
2023/07/31 05:35:14;;;;;;;4.80;1.87;;;16.80;99.90;;;;;;5026784;28;20199;-64
2023/07/31 05:37:40;;;;;;;8.73;1.47;;;16.80;99.90;;;;;;5026567;28;20649;-65
2023/07/31 05:40:06;;;;;;;1.87;1.50;;;16.80;99.90;;;;;;5027042;28;20678;-63
2023/07/31 05:42:32;;;;;;;4.10;1.60;;;16.90;99.90;;;;;;5026902;28;20194;-64
2023/07/31 05:44:57;;;;;;;1.93;1.13;;;16.90;99.90;;;;;;5026610;28;20419;-64
2023/07/31 05:47:23;;;;;;;5.37;2.00;;;16.90;99.90;;;;;;5026591;28;20268;-64
2023/07/31 05:49:52;;;;;;;5.07;1.77;;;17.00;99.90;;;;;;5026330;28;20194;-64
2023/07/31 05:52:18;;;;;;;5.10;1.20;;;17.00;99.90;;;;;;5026754;28;20236;-64
2023/07/31 05:54:43;;;;;;;8.13;2.00;;;17.10;99.90;;;;;;5026483;28;20934;-64
2023/07/31 05:57:09;;;;;;;4.30;1.53;;;17.20;99.90;;;;;;5026483;28;20480;-64
2023/07/31 05:59:34;;;;;;;1.80;1.50;;;17.30;99.90;;;;;;5026581;28;20561;-64
2023/07/31 06:02:00;;;;;;;4.10;2.00;;;17.40;99.90;;;;;;5026393;28;20221;-64
2023/07/31 06:04:26;;;;;;;8.07;1.73;;;17.60;99.90;;;;;;5026450;28;20191;-64
2023/07/31 06:06:52;;;;;;;3.87;1.60;;;17.60;99.90;;;;;;5026491;28;20280;-64
2023/07/31 06:09:17;;;;;;;17.27;2.07;;;17.70;99.90;;;;;;5026497;28;20201;-64
2023/07/31 06:11:43;;;;;;;6.60;2.20;;;17.90;99.90;;;;;;5026360;28;20457;-64
2023/07/31 06:14:08;;;;;;;5.80;1.87;;;17.90;99.90;;;;;;5029724;28;20280;-64
2023/07/31 06:16:34;;;;;;;6.80;1.83;;;17.80;99.90;;;;;;5030039;28;20208;-64
2023/07/31 06:19:01;;;;;;;7.20;2.20;;;17.70;99.90;;;;;;5030198;28;20658;-63
2023/07/31 06:21:26;;;;;;;4.30;1.23;;;17.70;99.90;;;;;;5030116;28;20674;-64
2023/07/31 06:23:52;;;;;;;5.67;1.70;;;17.60;99.90;;;;;;5030333;28;20416;-64
2023/07/31 06:26:18;;;;;;;3.10;1.30;;;17.70;99.90;;;;;;5030195;28;20190;-64
2023/07/31 06:28:43;;;;;;;4.87;2.07;;;17.70;99.90;;;;;;5030922;28;20213;-64
2023/07/31 06:31:09;;;;;;;5.10;1.70;;;17.70;99.90;;;;;;5031680;28;20210;-64
2023/07/31 06:33:35;;;;;;;3.40;1.10;;;17.70;99.90;;;;;;5031645;28;20184;-65
2023/07/31 06:36:00;;;;;;;4.33;1.70;;;17.90;99.90;;;;;;5031497;28;20455;-63
2023/07/31 06:38:27;;;;;;;3.30;1.60;;;17.70;99.90;;;;;;5031628;28;20723;-64
2023/07/31 06:40:53;;;;;;;3.90;1.50;;;17.70;99.90;;;;;;5031493;28;20242;-64
2023/07/31 06:43:18;;;;;;;12.47;1.90;;;17.70;99.90;;;;;;5031790;28;20418;-64
2023/07/31 06:45:45;;;;;;;6.90;2.33;;;17.60;99.90;;;;;;5031428;28;20433;-64
2023/07/31 06:48:11;;;;;;;6.57;1.83;;;17.60;99.90;;;;;;5031271;28;20712;-64
2023/07/31 06:50:36;;;;;;;5.57;1.70;;;17.60;99.90;;;;;;5030564;28;20569;-64
2023/07/31 06:53:02;;;;;;;4.57;2.10;;;17.80;99.90;;;;;;5030686;28;20195;-64
2023/07/31 06:55:28;;;;;;;3.73;1.77;;;18.00;99.90;;;;;;5030393;28;20959;-64
2023/07/31 06:57:55;;;;;;;9.23;2.17;;;18.30;99.90;;;;;;5030447;28;20231;-63
2023/07/31 07:00:22;;;;;;;2.53;1.40;;;18.40;99.90;;;;;;5028972;28;20439;-64
2023/07/31 07:02:48;;;;;;;3.40;1.63;;;18.60;99.90;;;;;;5030309;28;20413;-64
2023/07/31 07:05:14;;;;;;;5.43;1.90;;;18.70;99.90;;;;;;5030288;28;20534;-64
2023/07/31 07:07:40;;;;;;;2.33;1.47;;;18.80;99.90;;;;;;5030561;28;20889;-64
2023/07/31 07:10:07;;;;;;;2.77;1.70;;;18.90;99.90;;;;;;5030125;28;21109;-64
2023/07/31 07:12:33;;;;;;;4.57;1.40;;;19.10;99.90;;;;;;5030555;28;20425;-64
2023/07/31 07:14:59;;;;;;;5.30;1.70;;;19.20;99.90;;;;;;5030020;28;20432;-64
2023/07/31 07:17:26;;;;;;;4.10;1.90;;;19.30;99.90;;;;;;5029938;28;20477;-64
2023/07/31 07:19:52;;;;;;;5.80;2.23;;;19.40;99.90;;;;;;5029396;28;20426;-64
2023/07/31 07:22:18;;;;;;;2.53;1.40;;;19.30;99.90;;;;;;5028966;28;20995;-64
2023/07/31 07:24:43;;;;;;;6.30;1.90;;;19.40;99.90;;;;;;5029112;28;20191;-64
2023/07/31 07:27:09;;;;;;;4.87;2.10;;;19.50;99.90;;;;;;5028922;28;20461;-64
2023/07/31 07:29:35;;;;;;;3.73;1.90;;;19.40;99.90;;;;;;5028971;28;20224;-64
2023/07/31 07:32:01;;;;;;;8.87;2.40;;;19.50;99.90;;;;;;5028720;28;20245;-64
2023/07/31 07:34:27;;;;;;;6.67;1.90;;;19.60;99.90;;;;;;5028775;28;20466;-64
2023/07/31 07:36:53;;;;;;;5.00;1.83;;;19.50;99.90;;;;;;5028666;28;20805;-64
2023/07/31 07:39:19;;;;;;;6.30;2.10;;;19.60;99.90;;;;;;5028680;28;20419;-64
2023/07/31 07:41:44;;;;;;;4.70;2.00;;;19.50;99.90;;;;;;5028571;28;20521;-64
2023/07/31 07:44:10;;;;;;;2.23;1.60;;;19.60;99.90;;;;;;5028439;28;20187;-64
2023/07/31 07:46:35;;;;;;;3.00;1.67;;;19.60;99.90;;;;;;5028435;28;20196;-64
2023/07/31 07:49:01;;;;;;;4.57;2.23;;;19.70;99.90;;;;;;5028428;28;20196;-64
2023/07/31 07:51:27;;;;;;;6.10;1.70;;;19.60;99.90;;;;;;5028282;28;20276;-65
2023/07/31 07:53:52;;;;;;;5.70;2.00;;;19.50;99.90;;;;;;5028550;28;20199;-64
2023/07/31 07:56:18;;;;;;;2.67;1.20;;;19.40;99.90;;;;;;5028383;28;20212;-65
2023/07/31 07:58:43;;;;;;;7.57;2.27;;;19.40;99.90;;;;;;5028179;28;20184;-64
2023/07/31 08:01:09;;;;;;;9.50;2.10;;;19.30;99.90;;;;;;5028199;28;20219;-64
2023/07/31 08:03:35;;;;;;;4.53;2.20;;;19.20;99.90;;;;;;5028361;28;20647;-65
2023/07/31 08:06:01;;;;;;;6.03;2.10;;;19.30;99.90;;;;;;5028216;28;20614;-65
2023/07/31 08:08:28;;;;;;;4.63;2.53;;;19.30;99.90;;;;;;5028128;28;20239;-64
2023/07/31 08:10:54;;;;;;;6.43;2.43;;;19.30;99.90;;;;;;5027961;28;20450;-64
2023/07/31 08:13:20;;;;;;;4.73;1.70;;;19.40;99.90;;;;;;5028073;28;20428;-64
2023/07/31 08:15:45;;;;;;;3.20;2.00;;;19.50;99.90;;;;;;5028326;28;20315;-65
2023/07/31 08:18:11;;;;;;;5.43;2.40;;;19.70;99.90;;;;;;5028453;28;20195;-64
2023/07/31 08:20:37;;;;;;;3.77;1.87;;;19.60;99.90;;;;;;5028352;28;20207;-63
2023/07/31 08:23:03;;;;;;;5.03;2.23;;;19.70;99.90;;;;;;5028641;28;20811;-64
2023/07/31 08:25:29;;;;;;;6.83;2.03;;;19.70;99.90;;;;;;5028653;28;20427;-64
2023/07/31 08:27:55;;;;;;;4.30;2.10;;;19.80;99.90;;;;;;5028649;28;20476;-64
2023/07/31 08:30:21;;;;;;;2.77;1.90;;;20.00;99.90;;;;;;5028464;28;20439;-64
2023/07/31 08:32:47;;;;;;;6.10;2.40;;;20.10;99.90;;;;;;5028335;28;20198;-64
2023/07/31 08:35:12;;;;;;;4.30;2.13;;;20.20;99.90;;;;;;5028207;28;20204;-63
2023/07/31 08:37:38;;;;;;;5.30;2.07;;;20.40;99.90;;;;;;5028600;28;20311;-64
2023/07/31 08:40:05;;;;;;;4.53;2.07;;;20.60;99.90;;;;;;5028577;28;20242;-64
2023/07/31 08:42:31;;;;;;;5.37;2.20;;;20.70;99.90;;;;;;5028337;28;20459;-64
2023/07/31 08:44:59;;;;;;;4.83;2.47;;;20.80;99.90;;;;;;5028235;28;20478;-72
2023/07/31 08:47:27;;;;;;;6.03;1.83;;;20.80;99.90;;;;;;5027421;28;20529;-71
2023/07/31 08:49:54;;;;;;;4.93;2.00;;;20.90;99.90;;;;;;5027969;28;21031;-71
2023/07/31 08:52:20;;;;;;;5.10;2.10;;;20.90;99.90;;;;;;5027423;28;20470;-71
2023/07/31 08:54:45;;;;;;;5.07;2.47;;;20.80;99.90;;;;;;5027426;28;20847;-72
2023/07/31 08:57:13;;;;;;;8.10;2.60;;;21.00;99.90;;;;;;5027340;28;20251;-71
2023/07/31 08:59:40;;;;;;;9.03;2.57;;;21.10;99.90;;;;;;5027348;28;20211;-71
2023/07/31 09:02:08;;;;;;;6.70;2.70;;;21.30;99.90;;;;;;5027203;28;20447;-71
2023/07/31 09:04:34;;;;;;;4.80;2.03;;;21.30;99.70;;;;;;5027257;28;20521;-71
2023/07/31 09:07:04;;;;;;;4.83;2.13;;;21.20;98.60;;;;;;5028583;28;21048;-71
2023/07/31 09:09:31;;;;;;;3.93;2.03;;;21.20;99.90;;;;;;5028332;28;20263;-71
2023/07/31 09:11:58;;;;;;;4.30;2.43;;;21.20;98.90;;;;;;5027668;28;20963;-71
2023/07/31 09:14:25;;;;;;;5.93;2.20;;;21.60;97.40;;;;;;5027786;28;20425;-72
2023/07/31 09:16:55;;;;;;;8.27;2.57;;;22.10;96.90;;;;;;5027529;28;20570;-71
2023/07/31 09:19:38;;;;;;;6.47;2.00;;;22.20;95.70;;;;;;5027859;28;20756;-71
2023/07/31 09:22:05;;;;;;;11.03;2.33;;;22.40;97.40;;;;;;5027988;28;20427;-71
2023/07/31 09:24:32;;;;;;;6.53;2.70;;;22.40;94.40;;;;;;5027861;28;20424;-71
2023/07/31 09:26:59;;;;;;;4.80;1.80;;;22.30;93.60;;;;;;5027586;28;20433;-71
2023/07/31 09:29:27;;;;;;;4.57;2.17;;;22.30;95.00;;;;;;5027819;28;20419;-71
2023/07/31 09:31:54;;;;;;;9.20;2.83;;;22.30;95.40;;;;;;5027540;28;20445;-71
2023/07/31 09:34:27;;;;;;;6.00;2.00;;;22.20;95.50;;;;;;5027095;28;20431;-71
2023/07/31 09:36:53;;;;;;;4.90;2.20;;;22.20;94.90;;;;;;5027228;28;20458;-71
2023/07/31 09:39:20;;;;;;;6.80;2.70;;;22.40;94.10;;;;;;5027067;28;21211;-71
2023/07/31 09:41:54;;;;;;;5.13;2.50;;;22.60;94.40;;;;;;5027289;28;20208;-71
2023/07/31 09:44:20;;;;;;;6.23;2.37;;;22.60;92.80;;;;;;5027117;28;20414;-71
2023/07/31 09:46:46;;;;;;;3.83;2.10;;;22.50;94.50;;;;;;5028382;28;20804;-71
2023/07/31 09:49:13;;;;;;;7.00;2.57;;;22.20;94.00;;;;;;5031192;28;20481;-71
2023/07/31 09:51:41;;;;;;;3.80;2.03;;;22.10;94.10;;;;;;5031110;28;20964;-71
2023/07/31 09:54:15;;;;;;;5.33;2.53;;;22.10;95.00;;;;;;5031307;28;20839;-71
2023/07/31 09:56:48;;;;;;;4.00;1.93;;;22.10;94.90;;;;;;5031075;28;20465;-71
2023/07/31 09:59:19;;;;;;;7.90;2.30;;;22.00;94.50;;;;;;5031200;28;20900;-71
2023/07/31 10:01:46;;;;;;;7.70;2.43;;;21.80;93.30;;;;;;5031070;28;20438;-71
2023/07/31 10:04:13;;;;;;;5.20;2.20;;;22.20;94.50;;;;;;5031179;28;20411;-71
2023/07/31 10:06:42;;;;;;;6.13;2.30;;;22.40;93.20;;;;;;5031141;28;20511;-72
2023/07/31 10:09:10;;;;;;;6.93;2.53;;;22.40;93.60;;;;;;5030962;28;20430;-72
2023/07/31 10:11:45;;;;;;;5.43;1.90;;;22.50;95.70;;;;;;5030986;28;20448;-72
2023/07/31 10:14:11;;;;;;;11.33;3.23;;;22.50;94.00;;;;;;5030959;28;20425;-72
2023/07/31 10:16:39;;;;;;;6.90;2.20;;;22.60;94.00;;;;;;5031042;28;20458;-72
2023/07/31 10:19:05;;;;;;;4.50;2.03;;;22.60;95.50;;;;;;5030521;28;20423;-72
2023/07/31 10:21:34;;;;;;;3.30;2.20;;;22.60;94.40;;;;;;5030994;28;20441;-72
2023/07/31 10:24:03;;;;;;;4.30;2.30;;;22.30;93.60;;;;;;5030651;28;20423;-72
2023/07/31 10:26:30;;;;;;;8.23;2.50;;;22.50;95.60;;;;;;5030326;28;20478;-72
2023/07/31 10:28:57;;;;;;;5.80;2.67;;;22.60;94.30;;;;;;5030279;28;20423;-70
2023/07/31 10:31:24;;;;;;;8.20;2.50;;;23.40;94.00;;;;;;5030242;28;20545;-73
2023/07/31 10:33:51;;;;;;;4.03;2.47;;;24.10;93.20;;;;;;5030105;28;20453;-71
2023/07/31 10:36:19;;;;;;;4.80;2.63;;;24.80;94.30;;;;;;5028563;28;20840;-71
2023/07/31 10:38:46;;;;;;;4.17;1.90;;;25.30;95.60;;;;;;5030052;28;20430;-73
2023/07/31 10:41:11;;;;;;;5.03;2.40;;;25.20;93.00;;;;;;5029906;28;20934;-73
2023/07/31 10:43:38;;;;;;;4.47;2.20;;;25.50;91.40;;;;;;5030059;28;20419;-71
2023/07/31 10:46:09;;;;;;;4.70;1.90;;;25.60;92.60;;;;;;5029932;28;20215;-72
2023/07/31 10:48:36;;;;;;;5.07;3.07;;;25.90;91.90;;;;;;5029850;28;20452;-73
2023/07/31 10:51:11;;;;;;;3.37;2.00;;;26.30;91.10;;;;;;5029430;28;20562;-73
2023/07/31 10:53:38;;;;;;;4.37;2.30;;;26.60;91.40;;;;;;5029821;28;20838;-71
2023/07/31 10:56:08;;;;;;;11.00;2.33;;;27.00;90.00;;;;;;5029433;28;20467;-72
2023/07/31 10:58:34;;;;;;;4.70;2.23;;;27.20;91.30;;;;;;5028875;28;20413;-72
2023/07/31 11:01:03;;;;;;;3.07;1.90;;;27.10;90.80;;;;;;5029768;28;20534;-72
2023/07/31 11:03:46;;;;;;;3.97;2.10;;;27.20;90.20;;;;;;5029322;28;20419;-73
2023/07/31 11:06:13;;;;;;;5.73;2.23;;;26.70;90.90;;;;;;5028922;28;20418;-74
2023/07/31 11:08:50;;;;;;;6.13;2.00;;;26.30;85.30;;;;;;5029306;28;20422;-73
2023/07/31 11:11:17;;;;;;;6.90;2.40;;;26.00;90.00;;;;;;5027776;28;20804;-73
2023/07/31 11:13:45;;;;;;;7.43;2.80;;;26.60;90.00;;;;;;5029147;28;20446;-73
2023/07/31 11:16:13;;;;;;;9.57;3.10;;;26.80;87.10;;;;;;5029063;28;21258;-73
2023/07/31 11:18:40;;;;;;;3.90;2.47;;;26.80;89.10;;;;;;5029113;28;20423;-73
2023/07/31 11:21:06;;;;;;;5.83;2.77;;;26.60;90.00;;;;;;5030866;28;20814;-74
2023/07/31 11:23:32;;;;;;;6.07;2.60;;;26.30;90.10;;;;;;5030410;28;20426;-73
2023/07/31 11:26:01;;;;;;;8.63;2.10;;;26.20;90.30;;;;;;5029335;28;20180;-73
2023/07/31 11:28:32;;;;;;;5.93;2.87;;;26.40;89.30;;;;;;5029225;28;20223;-72
2023/07/31 11:30:58;;;;;;;3.53;2.23;;;26.30;88.00;;;;;;5029678;28;20435;-73
2023/07/31 11:33:23;;;;;;;3.37;2.00;;;26.30;89.50;;;;;;5029863;28;20909;-73
2023/07/31 11:35:49;;;;;;;7.40;2.20;;;26.50;89.20;;;;;;5029498;28;20184;-72
2023/07/31 11:38:41;;;;;;;4.93;2.30;;;26.60;86.40;;;;;;5029321;28;20299;-72
2023/07/31 11:41:07;;;;;;;5.23;2.30;;;26.40;90.20;;;;;;5028449;28;20705;-72
2023/07/31 11:43:32;;;;;;;7.20;2.43;;;26.50;89.00;;;;;;5029581;28;20476;-72
2023/07/31 11:46:02;;;;;;;5.00;2.67;;;26.60;88.90;;;;;;5029150;28;20586;-72
2023/07/31 11:48:35;;;;;;;5.67;2.43;;;26.60;87.80;;;;;;5029088;28;20192;-72
2023/07/31 11:51:03;;;;;;;3.50;2.43;;;26.20;88.80;;;;;;5029017;28;20501;-72
2023/07/31 11:53:28;;;;;;;4.50;2.77;;;25.90;88.00;;;;;;5028825;28;20951;-72
2023/07/31 11:55:55;;;;;;;8.13;2.10;;;25.70;88.10;;;;;;5029180;28;20426;-72
2023/07/31 11:58:21;;;;;;;4.10;2.40;;;25.60;88.10;;;;;;5029134;28;20574;-72
2023/07/31 12:00:48;;;;;;;7.27;2.50;;;25.90;86.40;;;;;;5028653;28;20439;-73
2023/07/31 12:03:13;;;;;;;3.80;2.70;;;26.20;87.50;;;;;;5028563;28;20529;-72
2023/07/31 12:05:39;;;;;;;4.50;2.13;;;25.90;86.60;;;;;;5028853;28;20413;-72
2023/07/31 12:08:11;;;;;;;4.17;2.30;;;25.70;85.30;;;;;;5028546;28;20410;-73
2023/07/31 12:10:38;;;;;;;7.37;2.70;;;25.60;88.10;;;;;;5027289;28;20207;-72
2023/07/31 12:13:10;;;;;;;5.50;2.80;;;25.70;87.60;;;;;;5028509;28;20441;-72
2023/07/31 12:15:43;;;;;;;4.47;2.40;;;26.00;87.50;;;;;;5028910;28;20411;-72
2023/07/31 12:18:14;;;;;;;4.40;2.87;;;25.70;87.20;;;;;;5026741;28;20517;-72
2023/07/31 12:20:46;;;;;;;3.43;2.17;;;25.60;88.30;;;;;;5028915;28;20520;-72
2023/07/31 12:23:16;;;;;;;4.10;2.90;;;25.50;87.50;;;;;;5029276;28;20988;-72
2023/07/31 12:25:42;;;;;;;4.80;2.23;;;25.20;89.50;;;;;;5029302;28;20511;-72
2023/07/31 12:28:11;;;;;;;5.70;2.70;;;25.00;90.00;;;;;;5029165;28;20506;-73
2023/07/31 12:30:38;;;;;;;4.67;2.80;;;24.90;88.30;;;;;;5028523;28;20530;-73
2023/07/31 12:33:15;;;;;;;5.30;2.50;;;24.40;89.90;;;;;;5085057;28;20927;-74
2023/07/31 12:35:45;;;;;;;3.70;3.17;;;24.60;94.30;;;;;;5085020;28;20413;-73
2023/07/31 12:38:13;;;;;;;3.80;2.70;;;24.40;95.80;;;;;;5085147;28;20415;-74
2023/07/31 12:40:40;;;;;;;5.63;2.57;;;24.40;94.80;;;;;;5066810;28;20440;-73
2023/07/31 12:43:06;;;;;;;6.87;3.20;;;24.60;94.70;;;;;;5085293;28;20426;-73